createdAt,value
2018-08-19T00:01:49.672Z,70.81
2018-08-19T00:04:17.443Z,70.27
2018-08-19T00:06:45.115Z,69.91
2018-08-19T00:09:13.986Z,68.76
2018-08-19T00:11:43.079Z,67.98
2018-08-19T00:14:24.806Z,67.29
2018-08-19T00:16:53.290Z,67.58
2018-08-19T00:19:21.070Z,67.05
2018-08-19T00:21:48.917Z,67.43
2018-08-19T00:24:16.844Z,67.55
2018-08-19T00:26:45.049Z,69.32
2018-08-19T00:29:12.794Z,70.62
2018-08-19T00:31:40.559Z,69.44
2018-08-19T00:34:08.497Z,67.97
2018-08-19T00:36:36.158Z,67.22
2018-08-19T00:39:06.704Z,65.71
2018-08-19T00:41:34.454Z,65.40
2018-08-19T00:44:02.202Z,65.05
2018-08-19T00:46:31.850Z,64.68
2018-08-19T00:49:00.274Z,64.14
2018-08-19T00:51:28.303Z,65.55
2018-08-19T00:53:56.281Z,65.39
2018-08-19T00:56:24.054Z,65.67
2018-08-19T00:58:51.762Z,66.38
2018-08-19T01:01:36.758Z,66.16
2018-08-19T01:04:07.442Z,66.01
2018-08-19T01:06:40.818Z,66.83
2018-08-19T01:09:09.397Z,67.43
2018-08-19T01:11:37.561Z,67.09
2018-08-19T01:14:09.053Z,66.05
2018-08-19T01:16:36.807Z,65.72
2018-08-19T01:19:04.538Z,65.31
2018-08-19T01:21:32.901Z,65.37
2018-08-19T01:24:01.986Z,65.38
2018-08-19T01:26:36.046Z,65.40
2018-08-19T01:29:04.813Z,64.84
2018-08-19T01:31:32.602Z,65.48
2018-08-19T01:34:00.367Z,64.94
2018-08-19T01:36:30.099Z,65.04
2018-08-19T01:38:57.829Z,65.32
2018-08-19T01:41:25.559Z,66.89
2018-08-19T01:44:04.908Z,69.51
2018-08-19T01:46:35.733Z,66.82
2018-08-19T01:49:03.641Z,66.46
2018-08-19T01:51:31.354Z,68.98
2018-08-19T01:54:05.087Z,69.90
2018-08-19T01:56:33.134Z,70.23
2018-08-19T01:59:00.802Z,70.43
2018-08-19T02:01:41.859Z,71.83
2018-08-19T02:04:09.530Z,71.73
2018-08-19T02:06:37.260Z,72.21
2018-08-19T02:09:07.381Z,72.01
2018-08-19T02:11:35.078Z,71.46
2018-08-19T02:14:02.891Z,71.49
2018-08-19T02:16:30.572Z,72.18
2018-08-19T02:18:58.241Z,71.50
2018-08-19T02:21:25.955Z,72.68
2018-08-19T02:23:53.610Z,72.69
2018-08-19T02:26:35.942Z,73.62
2018-08-19T02:29:14.406Z,74.13
2018-08-19T02:31:42.069Z,73.98
2018-08-19T02:34:09.878Z,74.12
2018-08-19T02:36:37.532Z,74.59
2018-08-19T02:39:05.646Z,74.67
2018-08-19T02:41:33.421Z,74.80
2018-08-19T02:44:01.086Z,75.05
2018-08-19T02:46:28.757Z,74.78
2018-08-19T02:48:56.490Z,74.87
2018-08-19T02:51:24.166Z,75.48
2018-08-19T02:53:52.157Z,75.46
2018-08-19T02:56:20.334Z,75.30
2018-08-19T02:58:48.493Z,74.50
2018-08-19T03:01:17.175Z,75.93
2018-08-19T03:03:44.827Z,75.15
2018-08-19T03:06:12.610Z,76.34
2018-08-19T03:08:50.528Z,76.42
2018-08-19T03:11:19.714Z,75.87
2018-08-19T03:13:47.669Z,76.14
2018-08-19T03:16:15.354Z,75.25
2018-08-19T03:18:43.119Z,75.71
2018-08-19T03:21:10.828Z,75.68
2018-08-19T03:23:38.543Z,74.26
2018-08-19T03:26:06.208Z,72.63
2018-08-19T03:28:33.870Z,71.11
2018-08-19T03:31:02.461Z,71.96
2018-08-19T03:33:30.702Z,72.69
2018-08-19T03:35:58.678Z,73.40
2018-08-19T03:38:27.129Z,72.60
2018-08-19T03:40:55.985Z,73.59
2018-08-19T03:43:23.805Z,73.27
2018-08-19T03:45:51.465Z,73.53
2018-08-19T03:48:19.135Z,73.60
2018-08-19T03:50:46.798Z,72.44
2018-08-19T03:53:14.562Z,72.06
2018-08-19T03:55:42.292Z,69.41
2018-08-19T03:58:10.906Z,65.01
2018-08-19T04:00:41.324Z,61.48
2018-08-19T04:03:20.063Z,56.80
2018-08-19T04:05:54.805Z,52.76
2018-08-19T04:08:58.714Z,52.51
2018-08-19T04:11:26.384Z,49.72
2018-08-19T04:16:27.510Z,48.87
2018-08-19T04:19:00.793Z,45.63
2018-08-19T04:21:28.429Z,44.52
2018-08-19T04:23:56.094Z,43.05
2018-08-19T04:26:23.756Z,41.07
2018-08-19T04:28:51.438Z,40.14
2018-08-19T04:31:23.921Z,40.44
2018-08-19T04:33:51.687Z,39.42
2018-08-19T04:36:21.501Z,41.21
2018-08-19T04:38:49.245Z,40.80
2018-08-19T04:41:17.055Z,40.27
2018-08-19T04:43:45.409Z,38.71
2018-08-19T04:46:13.188Z,38.31
2018-08-19T04:48:41.197Z,37.79
2018-08-19T04:51:08.875Z,36.00
2018-08-19T04:53:36.546Z,35.02
2018-08-19T04:56:04.278Z,36.79
2018-08-19T04:58:32.071Z,40.97
2018-08-19T05:01:00.107Z,43.53
2018-08-19T05:03:27.774Z,41.40
2018-08-19T05:05:58.045Z,39.31
2018-08-19T05:08:25.978Z,39.85
2018-08-19T05:10:53.667Z,38.16
2018-08-19T05:13:21.449Z,36.35
2018-08-19T05:15:49.109Z,34.53
2018-08-19T05:18:16.854Z,34.20
2018-08-19T05:20:44.541Z,32.87
2018-08-19T05:23:12.211Z,32.37
2018-08-19T05:26:11.860Z,33.95
2018-08-19T05:28:39.929Z,35.62
2018-08-19T05:31:07.726Z,38.82
2018-08-19T05:33:35.546Z,37.97
2018-08-19T05:36:03.319Z,38.48
2018-08-19T05:38:32.259Z,36.70
2018-08-19T05:41:00.946Z,36.80
2018-08-19T05:43:29.465Z,35.94
2018-08-19T05:45:59.159Z,35.65
2018-08-19T05:48:27.106Z,35.25
2018-08-19T05:50:55.501Z,34.09
2018-08-19T05:53:23.403Z,33.57
2018-08-19T05:55:51.644Z,32.42
2018-08-19T05:58:19.798Z,34.57
2018-08-19T06:00:51.039Z,35.40
2018-08-19T06:03:18.735Z,34.67
2018-08-19T06:05:46.417Z,38.26
2018-08-19T06:08:15.165Z,38.67
2018-08-19T06:10:42.905Z,40.69
2018-08-19T06:13:11.505Z,40.12
2018-08-19T06:15:39.576Z,38.75
2018-08-19T06:18:07.803Z,40.65
2018-08-19T06:20:35.466Z,43.30
2018-08-19T06:23:03.170Z,42.97
2018-08-19T06:25:30.914Z,40.89
2018-08-19T06:27:58.998Z,39.25
2018-08-19T06:30:26.825Z,39.80
2018-08-19T06:32:54.630Z,39.25
2018-08-19T06:35:22.477Z,41.08
2018-08-19T06:37:50.186Z,40.87
2018-08-19T06:40:19.869Z,41.22
2018-08-19T06:42:47.579Z,42.93
2018-08-19T06:45:15.506Z,42.41
2018-08-19T06:47:43.317Z,42.25
2018-08-19T06:50:20.805Z,42.00
2018-08-19T06:52:48.546Z,41.34
2018-08-19T06:55:16.598Z,39.83
2018-08-19T06:57:44.352Z,38.50
2018-08-19T07:00:16.094Z,39.58
2018-08-19T07:02:43.813Z,41.47
2018-08-19T07:05:11.486Z,40.09
2018-08-19T07:07:39.174Z,40.18
2018-08-19T07:10:07.065Z,37.03
2018-08-19T07:12:34.797Z,36.95
2018-08-19T07:15:02.607Z,38.22
2018-08-19T07:17:30.354Z,38.88
2018-08-19T07:19:58.028Z,39.46
2018-08-19T07:22:25.710Z,39.32
2018-08-19T07:24:53.424Z,37.81
2018-08-19T07:27:21.113Z,37.22
2018-08-19T07:29:48.878Z,35.97
2018-08-19T07:32:16.535Z,37.33
2018-08-19T07:34:44.258Z,37.81
2018-08-19T07:37:11.992Z,38.65
2018-08-19T07:39:46.223Z,38.16
2018-08-19T07:42:14.245Z,38.65
2018-08-19T07:44:41.978Z,41.06
2018-08-19T07:47:09.665Z,41.89
2018-08-19T07:49:37.378Z,42.19
2018-08-19T07:52:05.202Z,43.70
2018-08-19T07:54:32.976Z,44.73
2018-08-19T07:57:09.960Z,45.48
2018-08-19T07:59:37.691Z,44.58
2018-08-19T08:02:06.084Z,42.52
2018-08-19T08:04:38.279Z,42.25
2018-08-19T08:07:05.980Z,44.80
2018-08-19T08:09:33.638Z,45.37
2018-08-19T08:12:01.343Z,43.55
2018-08-19T08:14:29.857Z,41.95
2018-08-19T08:16:57.749Z,43.69
2018-08-19T08:19:25.458Z,44.32
2018-08-19T08:22:02.010Z,42.84
2018-08-19T08:24:30.502Z,42.26
2018-08-19T08:26:58.434Z,41.88
2018-08-19T08:29:26.115Z,39.46
2018-08-19T08:31:57.996Z,40.54
2018-08-19T08:34:27.149Z,38.37
2018-08-19T08:37:00.259Z,38.96
2018-08-19T08:39:28.017Z,40.37
2018-08-19T08:41:56.219Z,39.63
2018-08-19T08:44:23.885Z,41.74
2018-08-19T08:46:51.562Z,39.51
2018-08-19T08:49:19.259Z,37.26
2018-08-19T08:51:46.983Z,35.16
2018-08-19T08:54:14.686Z,39.23
2018-08-19T08:56:42.394Z,40.36
2018-08-19T08:59:10.136Z,38.02
2018-08-19T09:01:37.849Z,37.90
2018-08-19T09:04:05.574Z,38.90
2018-08-19T09:06:33.342Z,34.86
2018-08-19T09:09:01.097Z,34.04
2018-08-19T09:11:28.793Z,35.45
2018-08-19T09:13:56.567Z,33.22
2018-08-19T09:16:24.249Z,34.14
2018-08-19T09:18:52.018Z,34.40
2018-08-19T09:21:19.726Z,32.52
2018-08-19T09:23:47.381Z,33.10
2018-08-19T09:26:15.157Z,31.23
2018-08-19T09:28:42.844Z,30.57
2018-08-19T09:31:10.512Z,30.91
2018-08-19T09:33:38.204Z,29.71
2018-08-19T09:36:05.889Z,30.66
2018-08-19T09:38:33.582Z,30.83
2018-08-19T09:41:01.320Z,31.17
2018-08-19T09:43:29.078Z,29.87
2018-08-19T09:45:56.762Z,28.75
2018-08-19T09:48:24.506Z,32.13
2018-08-19T09:50:52.418Z,31.23
2018-08-19T09:53:20.125Z,30.78
2018-08-19T09:55:54.529Z,31.46
2018-08-19T09:58:22.657Z,31.84
2018-08-19T10:00:55.941Z,29.24
2018-08-19T10:03:23.653Z,27.51
2018-08-19T10:05:51.354Z,26.80
2018-08-19T10:08:21.857Z,25.99
2018-08-19T10:10:49.877Z,26.73
2018-08-19T10:13:17.565Z,27.51
2018-08-19T10:15:45.220Z,26.02
2018-08-19T10:18:13.032Z,25.84
2018-08-19T10:20:40.838Z,26.80
2018-08-19T10:23:08.582Z,24.88
2018-08-19T10:25:36.350Z,25.12
2018-08-19T10:28:04.107Z,25.74
2018-08-19T10:30:31.843Z,26.86
2018-08-19T10:33:06.565Z,27.29
2018-08-19T10:35:34.894Z,25.94
2018-08-19T10:38:03.378Z,27.73
2018-08-19T10:40:31.234Z,26.56
2018-08-19T10:43:04.990Z,25.90
2018-08-19T10:45:37.795Z,25.70
2018-08-19T10:48:07.406Z,24.65
2018-08-19T10:50:35.188Z,24.76
2018-08-19T10:53:03.374Z,25.48
2018-08-19T10:55:31.128Z,24.97
2018-08-19T10:57:58.851Z,25.21
2018-08-19T11:00:30.554Z,25.07
2018-08-19T11:03:22.975Z,25.12
2018-08-19T11:05:52.311Z,25.13
2018-08-19T11:08:20.145Z,27.73
2018-08-19T11:10:48.002Z,26.45
2018-08-19T11:13:18.709Z,25.58
2018-08-19T11:15:48.663Z,26.69
2018-08-19T11:18:23.994Z,25.72
2018-08-19T11:21:01.513Z,27.29
2018-08-19T11:23:29.178Z,26.23
2018-08-19T11:25:57.718Z,27.64
2018-08-19T11:28:35.729Z,30.21
2018-08-19T11:31:03.551Z,28.85
2018-08-19T11:33:38.733Z,27.73
2018-08-19T11:36:06.838Z,27.58
2018-08-19T11:38:34.528Z,27.70
2018-08-19T11:41:05.292Z,27.89
2018-08-19T11:43:37.056Z,27.43
2018-08-19T11:46:05.335Z,29.57
2018-08-19T11:48:33.044Z,29.00
2018-08-19T11:51:00.989Z,27.14
2018-08-19T11:53:28.700Z,30.39
2018-08-19T11:55:56.699Z,31.04
2018-08-19T11:58:35.929Z,29.08
2018-08-19T12:01:05.401Z,30.97
2018-08-19T12:04:06.132Z,30.47
2018-08-19T12:06:34.225Z,28.50
2018-08-19T12:09:05.579Z,29.50
2018-08-19T12:11:34.585Z,31.90
2018-08-19T12:14:05.827Z,31.90
2018-08-19T12:16:40.903Z,30.38
2018-08-19T12:19:14.069Z,31.12
2018-08-19T12:21:46.434Z,29.22
2018-08-19T12:24:23.641Z,29.26
2018-08-19T12:26:53.929Z,29.24
2018-08-19T12:29:22.369Z,30.66
2018-08-19T12:31:52.637Z,28.91
2018-08-19T12:34:20.372Z,28.61
2018-08-19T12:36:48.020Z,28.69
2018-08-19T12:39:15.698Z,30.08
2018-08-19T12:41:50.689Z,31.36
2018-08-19T12:44:18.361Z,29.51
2018-08-19T12:47:01.833Z,29.48
2018-08-19T12:49:31.250Z,29.35
2018-08-19T12:51:58.923Z,28.49
2018-08-19T12:54:26.613Z,29.63
2018-08-19T12:56:54.277Z,30.56
2018-08-19T12:59:21.944Z,29.67
2018-08-19T13:01:49.626Z,29.98
2018-08-19T13:04:17.392Z,30.57
2018-08-19T13:06:56.291Z,29.67
2018-08-19T13:09:27.121Z,30.76
2018-08-19T13:11:54.922Z,29.08
2018-08-19T13:14:22.683Z,29.16
2018-08-19T13:16:50.362Z,29.38
2018-08-19T13:19:18.036Z,29.93
2018-08-19T13:21:45.757Z,29.46
2018-08-19T13:24:13.499Z,28.75
2018-08-19T13:26:41.203Z,28.98
2018-08-19T13:29:08.926Z,28.33
2018-08-19T13:31:36.589Z,28.03
2018-08-19T13:34:04.342Z,26.96
2018-08-19T13:36:32.369Z,27.33
2018-08-19T13:39:00.054Z,26.64
2018-08-19T13:41:27.714Z,26.02
2018-08-19T13:43:55.373Z,26.41
2018-08-19T13:46:23.081Z,27.05
2018-08-19T13:48:51.039Z,27.10
2018-08-19T13:51:18.777Z,27.25
2018-08-19T13:53:46.449Z,27.35
2018-08-19T13:56:14.337Z,26.88
2018-08-19T13:58:42.112Z,25.64
2018-08-19T14:01:09.806Z,26.40
2018-08-19T14:03:37.547Z,27.48
2018-08-19T14:06:05.249Z,26.97
2018-08-19T14:08:32.913Z,27.07
2018-08-19T14:11:00.590Z,26.68
2018-08-19T14:13:28.224Z,27.40
2018-08-19T14:15:55.901Z,26.71
2018-08-19T14:18:23.597Z,26.04
2018-08-19T14:20:51.234Z,28.31
2018-08-19T14:23:18.899Z,28.19
2018-08-19T14:25:48.104Z,28.23
2018-08-19T14:28:15.781Z,27.96
2018-08-19T14:30:43.515Z,28.32
2018-08-19T14:33:11.233Z,28.11
2018-08-19T14:35:38.881Z,28.56
2018-08-19T14:38:06.593Z,27.62
2018-08-19T14:40:34.455Z,28.14
2018-08-19T14:43:02.011Z,27.21
2018-08-19T14:45:29.683Z,27.88
2018-08-19T14:47:57.445Z,28.23
2018-08-19T14:50:25.137Z,27.50
2018-08-19T14:52:52.959Z,28.27
2018-08-19T14:55:20.637Z,27.56
2018-08-19T14:57:48.338Z,28.06
2018-08-19T15:00:16.868Z,27.90
2018-08-19T15:02:44.577Z,27.46
2018-08-19T15:05:13.405Z,27.95
2018-08-19T15:07:41.438Z,28.60
2018-08-19T15:10:09.199Z,28.32
2018-08-19T15:12:36.858Z,28.45
2018-08-19T15:15:04.780Z,27.60
2018-08-19T15:17:32.459Z,28.10
2018-08-19T15:20:00.126Z,27.31
2018-08-19T15:22:27.855Z,27.58
2018-08-19T15:24:55.569Z,28.49
2018-08-19T15:27:23.300Z,27.51
2018-08-19T15:29:52.326Z,27.97
2018-08-19T15:32:22.179Z,28.98
2018-08-19T15:34:49.671Z,29.39
2018-08-19T15:37:17.373Z,29.55
2018-08-19T15:39:45.159Z,29.83
2018-08-19T15:42:14.184Z,29.15
2018-08-19T15:44:41.856Z,29.54
2018-08-19T15:47:09.652Z,29.54
2018-08-19T15:49:37.359Z,29.16
2018-08-19T15:52:05.059Z,29.57
2018-08-19T15:54:32.758Z,30.74
2018-08-19T15:57:02.036Z,30.43
2018-08-19T15:59:36.419Z,30.23
2018-08-19T16:02:04.387Z,29.67
2018-08-19T16:04:32.234Z,29.54
2018-08-19T16:07:00.279Z,29.61
2018-08-19T16:09:28.738Z,30.66
2018-08-19T16:11:56.587Z,30.34
2018-08-19T16:14:28.431Z,31.18
2018-08-19T16:16:57.730Z,31.08
2018-08-19T16:19:25.441Z,30.84
2018-08-19T16:21:54.419Z,32.03
2018-08-19T16:24:22.249Z,33.03
2018-08-19T16:26:50.005Z,32.95
2018-08-19T16:29:17.782Z,34.04
2018-08-19T16:31:45.639Z,34.76
2018-08-19T16:34:13.439Z,35.45
2018-08-19T16:36:41.215Z,36.14
2018-08-19T16:39:10.677Z,37.05
2018-08-19T16:41:38.421Z,37.41
2018-08-19T16:44:06.416Z,37.52
2018-08-19T16:46:34.156Z,39.13
2018-08-19T16:49:02.057Z,39.04
2018-08-19T16:51:29.876Z,40.63
2018-08-19T16:53:57.575Z,41.10
2018-08-19T16:56:25.633Z,41.10
2018-08-19T16:58:53.399Z,40.56
2018-08-19T17:01:21.169Z,40.87
2018-08-19T17:03:48.844Z,40.78
2018-08-19T17:06:16.549Z,40.03
2018-08-19T17:08:44.305Z,39.65
2018-08-19T17:11:13.039Z,40.31
2018-08-19T17:13:40.773Z,39.35
2018-08-19T17:16:08.753Z,40.16
2018-08-19T17:18:36.430Z,39.49
2018-08-19T17:21:04.194Z,39.40
2018-08-19T17:23:32.170Z,39.42
2018-08-19T17:26:05.755Z,38.83
2018-08-19T17:28:33.390Z,39.45
2018-08-19T17:31:01.451Z,39.08
2018-08-19T17:33:30.708Z,40.09
2018-08-19T17:35:58.599Z,39.57
2018-08-19T17:38:32.274Z,40.67
2018-08-19T17:41:00.473Z,40.94
2018-08-19T17:43:33.719Z,40.66
2018-08-19T17:46:20.405Z,41.26
2018-08-19T17:48:48.170Z,41.30
2018-08-19T17:51:27.650Z,40.32
2018-08-19T17:53:55.348Z,40.95
2018-08-19T17:56:23.010Z,40.59
2018-08-19T17:58:50.939Z,40.64
2018-08-19T18:01:18.906Z,40.85
2018-08-19T18:03:46.662Z,41.90
2018-08-19T18:06:14.336Z,41.10
2018-08-19T18:08:47.566Z,41.42
2018-08-19T18:11:15.400Z,42.82
2018-08-19T18:13:43.189Z,42.86
2018-08-19T18:16:11.422Z,41.17
2018-08-19T18:18:39.161Z,43.16
2018-08-19T18:21:06.949Z,42.49
2018-08-19T18:23:34.682Z,43.05
2018-08-19T18:26:02.421Z,41.85
2018-08-19T18:28:31.273Z,41.22
2018-08-19T18:31:04.064Z,42.03
2018-08-19T18:33:31.886Z,42.90
2018-08-19T18:35:59.604Z,42.93
2018-08-19T18:38:30.351Z,42.64
2018-08-19T18:40:58.412Z,42.93
2018-08-19T18:43:26.147Z,42.65
2018-08-19T18:45:53.924Z,43.33
2018-08-19T18:48:21.674Z,43.14
2018-08-19T18:50:53.776Z,43.93
2018-08-19T18:53:22.118Z,45.85
2018-08-19T18:55:49.877Z,45.68
2018-08-19T18:58:17.652Z,45.43
2018-08-19T19:00:50.830Z,46.77
2018-08-19T19:03:18.650Z,45.76
2018-08-19T19:05:46.372Z,47.16
2018-08-19T19:08:17.096Z,46.63
2018-08-19T19:10:51.654Z,47.58
2018-08-19T19:13:20.682Z,47.73
2018-08-19T19:15:48.986Z,48.23
2018-08-19T19:18:17.079Z,49.04
2018-08-19T19:20:49.970Z,48.49
2018-08-19T19:23:18.162Z,49.18
2018-08-19T19:25:45.882Z,48.60
2018-08-19T19:28:13.566Z,48.96
2018-08-19T19:30:41.258Z,48.44
2018-08-19T19:33:11.998Z,48.60
2018-08-19T19:35:39.742Z,48.59
2018-08-19T19:38:07.979Z,49.00
2018-08-19T19:40:35.662Z,49.49
2018-08-19T19:43:03.756Z,49.52
2018-08-19T19:45:44.842Z,50.49
2018-08-19T19:48:12.512Z,49.70
2018-08-19T19:50:40.414Z,50.26
2018-08-19T19:53:08.120Z,50.89
2018-08-19T19:55:35.801Z,51.58
2018-08-19T19:58:03.590Z,51.51
2018-08-19T20:01:03.164Z,51.96
2018-08-19T20:03:33.197Z,53.17
2018-08-19T20:06:02.810Z,53.08
2018-08-19T20:08:30.524Z,53.33
2018-08-19T20:10:58.227Z,53.28
2018-08-19T20:13:25.890Z,53.40
2018-08-19T20:15:53.605Z,53.03
2018-08-19T20:18:21.322Z,53.66
2018-08-19T20:20:49.053Z,53.11
2018-08-19T20:23:22.201Z,52.44
2018-08-19T20:25:49.894Z,51.78
2018-08-19T20:28:17.624Z,52.57
2018-08-19T20:30:45.348Z,51.94
2018-08-19T20:33:19.082Z,50.97
2018-08-19T20:35:47.387Z,51.10
2018-08-19T20:38:15.182Z,51.05
2018-08-19T20:40:43.073Z,50.97
2018-08-19T20:43:15.171Z,51.97
2018-08-19T20:45:43.865Z,52.22
2018-08-19T20:48:11.870Z,51.63
2018-08-19T20:50:39.586Z,52.02
2018-08-19T20:53:07.302Z,52.30
2018-08-19T20:55:35.057Z,54.10
2018-08-19T20:58:02.845Z,54.28
2018-08-19T21:00:30.598Z,53.56
2018-08-19T21:02:58.322Z,54.08
2018-08-19T21:05:26.050Z,53.83
2018-08-19T21:08:06.180Z,54.10
2018-08-19T21:10:33.881Z,54.75
2018-08-19T21:13:01.596Z,54.98
2018-08-19T21:15:34.824Z,55.49
2018-08-19T21:18:02.574Z,55.58
2018-08-19T21:20:30.493Z,55.43
2018-08-19T21:22:58.273Z,55.78
2018-08-19T21:25:26.414Z,56.39
2018-08-19T21:27:54.126Z,56.99
2018-08-19T21:30:21.846Z,57.58
2018-08-19T21:32:49.503Z,58.01
2018-08-19T21:35:17.350Z,57.99
2018-08-19T21:37:46.561Z,57.49
2018-08-19T21:40:17.756Z,56.89
2018-08-19T21:42:50.170Z,57.78
2018-08-19T21:45:17.915Z,57.45
2018-08-19T21:47:45.569Z,58.25
2018-08-19T21:50:13.245Z,58.12
2018-08-19T21:53:00.705Z,58.14
2018-08-19T21:55:31.854Z,58.05
2018-08-19T21:58:00.205Z,57.95
2018-08-19T22:00:28.990Z,57.87
2018-08-19T22:03:03.025Z,59.67
2018-08-19T22:05:32.202Z,60.33
2018-08-19T22:08:00.175Z,59.59
2018-08-19T22:10:27.885Z,59.18
2018-08-19T22:12:55.602Z,59.08
2018-08-19T22:15:28.058Z,58.85
2018-08-19T22:17:57.820Z,59.46
2018-08-19T22:20:25.665Z,59.43
2018-08-19T22:22:53.369Z,60.00
2018-08-19T22:25:21.103Z,59.37
2018-08-19T22:27:48.787Z,59.35
2018-08-19T22:30:16.537Z,60.10
2018-08-19T22:32:44.206Z,60.84
2018-08-19T22:35:11.888Z,59.87
2018-08-19T22:37:39.671Z,60.19
2018-08-19T22:40:07.706Z,60.90
2018-08-19T22:42:35.390Z,60.89
2018-08-19T22:45:03.102Z,61.35
2018-08-19T22:47:30.790Z,61.22
2018-08-19T22:49:59.122Z,61.23
2018-08-19T22:52:26.814Z,61.41
2018-08-19T22:54:56.020Z,60.65
2018-08-19T22:57:23.854Z,60.38
2018-08-19T22:59:51.519Z,60.89
2018-08-19T23:02:19.324Z,60.58
2018-08-19T23:04:47.263Z,59.97
2018-08-19T23:07:15.050Z,60.43
2018-08-19T23:09:42.742Z,59.95
2018-08-19T23:12:10.427Z,58.94
2018-08-19T23:14:49.314Z,59.39
2018-08-19T23:17:17.063Z,59.17
2018-08-19T23:19:45.535Z,60.05
2018-08-19T23:22:13.224Z,60.92
2018-08-19T23:24:40.888Z,60.70
2018-08-19T23:27:08.895Z,61.68
2018-08-19T23:29:36.596Z,61.62
2018-08-19T23:32:04.307Z,62.17
2018-08-19T23:34:32.006Z,61.59
2018-08-19T23:36:59.709Z,62.49
2018-08-19T23:39:27.402Z,63.01
2018-08-19T23:41:55.088Z,62.83
2018-08-19T23:44:22.762Z,62.26
2018-08-19T23:46:50.470Z,62.10
2018-08-19T23:49:18.197Z,61.74
2018-08-19T23:51:45.861Z,62.20
2018-08-19T23:54:13.517Z,62.15
2018-08-19T23:56:41.182Z,62.30
2018-08-19T23:59:08.850Z,62.43
